sensor_id;sensor_type;location;lat;lon;timestamp;pressure;altitude;pressure_sealevel;temperature;humidity
11049;BME280;5577;42.706;23.160;2023-01-28T00:01:44;93506.00;;;0.31;100.00
11049;BME280;5577;42.706;23.160;2023-01-28T00:04:28;93505.88;;;0.36;100.00
11049;BME280;5577;42.706;23.160;2023-01-28T00:07:12;93502.81;;;0.34;100.00
11049;BME280;5577;42.706;23.160;2023-01-28T00:09:56;93503.56;;;0.34;100.00
11049;BME280;5577;42.706;23.160;2023-01-28T00:12:40;93517.06;;;0.36;100.00
11049;BME280;5577;42.706;23.160;2023-01-28T00:15:24;93510.72;;;0.29;100.00
11049;BME280;5577;42.706;23.160;2023-01-28T00:18:08;93508.06;;;0.20;100.00
11049;BME280;5577;42.706;23.160;2023-01-28T00:21:08;93513.75;;;0.22;100.00
11049;BME280;5577;42.706;23.160;2023-01-28T00:23:54;93519.19;;;0.12;100.00
11049;BME280;5577;42.706;23.160;2023-01-28T00:26:38;93518.41;;;0.12;100.00
11049;BME280;5577;42.706;23.160;2023-01-28T00:29:22;93524.03;;;0.05;100.00
11049;BME280;5577;42.706;23.160;2023-01-28T00:32:06;93521.88;;;0.07;100.00
11049;BME280;5577;42.706;23.160;2023-01-28T00:34:51;93530.97;;;0.10;100.00
11049;BME280;5577;42.706;23.160;2023-01-28T00:37:35;93533.06;;;0.08;100.00
11049;BME280;5577;42.706;23.160;2023-01-28T00:40:20;93532.41;;;0.02;100.00
11049;BME280;5577;42.706;23.160;2023-01-28T00:43:04;93542.25;;;0.05;100.00
11049;BME280;5577;42.706;23.160;2023-01-28T00:45:48;93547.81;;;0.12;100.00
11049;BME280;5577;42.706;23.160;2023-01-28T00:48:33;93534.97;;;0.16;100.00
11049;BME280;5577;42.706;23.160;2023-01-28T00:51:18;93543.91;;;0.23;100.00
11049;BME280;5577;42.706;23.160;2023-01-28T00:54:03;93532.25;;;0.21;100.00
11049;BME280;5577;42.706;23.160;2023-01-28T00:56:47;93452.44;;;-0.37;100.00
11049;BME280;5577;42.706;23.160;2023-01-28T00:59:31;93542.25;;;0.27;100.00
11049;BME280;5577;42.706;23.160;2023-01-28T01:02:15;93538.91;;;0.27;100.00
11049;BME280;5577;42.706;23.160;2023-01-28T01:05:00;93548.03;;;0.24;100.00
11049;BME280;5577;42.706;23.160;2023-01-28T01:07:44;93547.00;;;0.25;100.00
11049;BME280;5577;42.706;23.160;2023-01-28T01:10:27;93541.06;;;0.33;100.00
11049;BME280;5577;42.706;23.160;2023-01-28T01:13:12;93549.91;;;0.24;100.00
11049;BME280;5577;42.706;23.160;2023-01-28T01:16:03;93547.69;;;0.17;100.00
11049;BME280;5577;42.706;23.160;2023-01-28T01:18:47;93540.41;;;0.28;100.00
11049;BME280;5577;42.706;23.160;2023-01-28T01:21:33;93543.91;;;0.23;100.00
11049;BME280;5577;42.706;23.160;2023-01-28T01:24:17;93547.38;;;0.19;100.00
11049;BME280;5577;42.706;23.160;2023-01-28T01:27:00;93538.06;;;0.18;100.00
11049;BME280;5577;42.706;23.160;2023-01-28T01:29:44;93551.22;;;0.21;100.00
11049;BME280;5577;42.706;23.160;2023-01-28T01:32:32;93552.81;;;0.08;100.00
11049;BME280;5577;42.706;23.160;2023-01-28T01:35:17;93553.09;;;0.21;100.00
11049;BME280;5577;42.706;23.160;2023-01-28T01:38:01;93547.22;;;0.15;100.00
11049;BME280;5577;42.706;23.160;2023-01-28T01:40:45;93556.41;;;0.13;100.00
11049;BME280;5577;42.706;23.160;2023-01-28T01:43:49;93549.09;;;0.23;100.00
11049;BME280;5577;42.706;23.160;2023-01-28T01:46:41;93561.59;;;0.13;100.00
11049;BME280;5577;42.706;23.160;2023-01-28T01:49:27;93496.09;;;-0.25;100.00
11049;BME280;5577;42.706;23.160;2023-01-28T01:52:15;93558.88;;;0.18;100.00
11049;BME280;5577;42.706;23.160;2023-01-28T01:55:03;93556.06;;;0.14;100.00
11049;BME280;5577;42.706;23.160;2023-01-28T01:57:51;93567.09;;;0.11;100.00
11049;BME280;5577;42.706;23.160;2023-01-28T02:00:38;93559.38;;;0.06;100.00
11049;BME280;5577;42.706;23.160;2023-01-28T02:03:28;93565.72;;;0.14;100.00
11049;BME280;5577;42.706;23.160;2023-01-28T02:06:14;93567.47;;;0.04;100.00
11049;BME280;5577;42.706;23.160;2023-01-28T02:08:58;93555.06;;;0.01;100.00
11049;BME280;5577;42.706;23.160;2023-01-28T02:11:42;93566.19;;;0.16;100.00
11049;BME280;5577;42.706;23.160;2023-01-28T02:14:29;93557.44;;;0.12;100.00
11049;BME280;5577;42.706;23.160;2023-01-28T02:17:14;93534.38;;;-0.04;100.00
11049;BME280;5577;42.706;23.160;2023-01-28T02:20:08;93570.75;;;0.10;100.00
11049;BME280;5577;42.706;23.160;2023-01-28T02:32:38;93573.47;;;0.05;100.00
11049;BME280;5577;42.706;23.160;2023-01-28T02:35:36;93574.81;;;0.03;100.00
11049;BME280;5577;42.706;23.160;2023-01-28T02:38:30;93574.78;;;0.16;100.00
11049;BME280;5577;42.706;23.160;2023-01-28T02:41:40;93531.06;;;0.04;100.00
11049;BME280;5577;42.706;23.160;2023-01-28T02:44:25;93530.81;;;-0.08;100.00
11049;BME280;5577;42.706;23.160;2023-01-28T02:47:10;93571.03;;;0.08;100.00
11049;BME280;5577;42.706;23.160;2023-01-28T02:50:16;93572.44;;;-0.08;100.00
11049;BME280;5577;42.706;23.160;2023-01-28T02:53:24;93571.09;;;-0.05;100.00
11049;BME280;5577;42.706;23.160;2023-01-28T02:56:46;93568.47;;;-0.05;100.00
11049;BME280;5577;42.706;23.160;2023-01-28T02:59:50;93565.50;;;-0.12;100.00
11049;BME280;5577;42.706;23.160;2023-01-28T03:02:54;93574.94;;;-0.03;100.00
11049;BME280;5577;42.706;23.160;2023-01-28T03:05:45;93577.59;;;0.06;100.00
11049;BME280;5577;42.706;23.160;2023-01-28T03:08:53;93571.09;;;-0.05;100.00
11049;BME280;5577;42.706;23.160;2023-01-28T03:15:07;93516.41;;;-0.49;100.00
11049;BME280;5577;42.706;23.160;2023-01-28T03:21:26;93586.81;;;-0.10;100.00
11049;BME280;5577;42.706;23.160;2023-01-28T03:24:34;93584.59;;;-0.17;100.00
11049;BME280;5577;42.706;23.160;2023-01-28T03:27:52;93582.19;;;-0.13;100.00
11049;BME280;5577;42.706;23.160;2023-01-28T03:31:05;93596.16;;;-0.09;100.00
11049;BME280;5577;42.706;23.160;2023-01-28T03:34:10;93593.34;;;-0.13;100.00
11049;BME280;5577;42.706;23.160;2023-01-28T03:37:13;93587.19;;;-0.17;100.00
11049;BME280;5577;42.706;23.160;2023-01-28T03:40:04;93551.03;;;-0.40;100.00
11049;BME280;5577;42.706;23.160;2023-01-28T03:42:49;93594.72;;;-0.15;100.00
11049;BME280;5577;42.706;23.160;2023-01-28T03:45:35;93587.97;;;-0.16;100.00
11049;BME280;5577;42.706;23.160;2023-01-28T03:48:25;93597.31;;;-0.15;100.00
11049;BME280;5577;42.706;23.160;2023-01-28T03:51:09;93602.03;;;-0.17;100.00
11049;BME280;5577;42.706;23.160;2023-01-28T03:53:54;93579.75;;;-0.45;100.00
11049;BME280;5577;42.706;23.160;2023-01-28T03:56:39;93602.91;;;-0.22;100.00
11049;BME280;5577;42.706;23.160;2023-01-28T03:59:23;93609.84;;;-0.17;100.00
11049;BME280;5577;42.706;23.160;2023-01-28T04:02:08;93620.72;;;-0.15;100.00
11049;BME280;5577;42.706;23.160;2023-01-28T04:04:53;93614.28;;;-0.18;100.00
11049;BME280;5577;42.706;23.160;2023-01-28T04:07:37;93566.75;;;-0.45;100.00
11049;BME280;5577;42.706;23.160;2023-01-28T04:10:21;93615.25;;;-0.27;100.00
11049;BME280;5577;42.706;23.160;2023-01-28T04:13:06;93616.69;;;-0.21;100.00
11049;BME280;5577;42.706;23.160;2023-01-28T04:15:50;93607.28;;;-0.44;100.00
11049;BME280;5577;42.706;23.160;2023-01-28T04:18:34;93607.84;;;-0.47;100.00
11049;BME280;5577;42.706;23.160;2023-01-28T04:21:18;93590.13;;;-0.72;100.00
11049;BME280;5577;42.706;23.160;2023-01-28T04:24:03;93627.41;;;-0.63;100.00
11049;BME280;5577;42.706;23.160;2023-01-28T04:26:47;93634.81;;;-0.57;100.00
11049;BME280;5577;42.706;23.160;2023-01-28T04:29:31;93634.63;;;-0.47;100.00
11049;BME280;5577;42.706;23.160;2023-01-28T04:32:15;93636.03;;;-0.41;100.00
11049;BME280;5577;42.706;23.160;2023-01-28T04:34:59;93633.38;;;-0.49;100.00
11049;BME280;5577;42.706;23.160;2023-01-28T04:37:44;93639.44;;;-0.40;100.00
11049;BME280;5577;42.706;23.160;2023-01-28T04:40:28;93638.75;;;-0.46;100.00
11049;BME280;5577;42.706;23.160;2023-01-28T04:43:12;93646.84;;;-0.34;100.00
11049;BME280;5577;42.706;23.160;2023-01-28T04:45:56;93653.88;;;-0.34;100.00
11049;BME280;5577;42.706;23.160;2023-01-28T04:48:41;93643.28;;;-0.38;100.00
11049;BME280;5577;42.706;23.160;2023-01-28T04:51:25;93652.25;;;-0.30;100.00
11049;BME280;5577;42.706;23.160;2023-01-28T04:54:09;93650.22;;;-0.47;100.00
11049;BME280;5577;42.706;23.160;2023-01-28T04:56:53;93652.53;;;-0.45;100.00
11049;BME280;5577;42.706;23.160;2023-01-28T04:59:37;93659.94;;;-0.39;100.00
11049;BME280;5577;42.706;23.160;2023-01-28T05:02:21;93656.09;;;-0.28;100.00
11049;BME280;5577;42.706;23.160;2023-01-28T05:05:05;93642.78;;;-0.26;100.00
11049;BME280;5577;42.706;23.160;2023-01-28T05:07:53;93643.28;;;-0.24;100.00
11049;BME280;5577;42.706;23.160;2023-01-28T05:10:37;93658.19;;;-0.16;100.00
11049;BME280;5577;42.706;23.160;2023-01-28T05:13:23;93662.44;;;-0.20;100.00
11049;BME280;5577;42.706;23.160;2023-01-28T05:16:06;93660.13;;;-0.22;100.00
11049;BME280;5577;42.706;23.160;2023-01-28T05:18:50;93621.53;;;-0.55;100.00
11049;BME280;5577;42.706;23.160;2023-01-28T05:21:34;93674.56;;;-0.29;100.00
11049;BME280;5577;42.706;23.160;2023-01-28T05:24:18;93671.59;;;-0.36;100.00
11049;BME280;5577;42.706;23.160;2023-01-28T05:27:04;93683.06;;;-0.37;100.00
11049;BME280;5577;42.706;23.160;2023-01-28T05:29:48;93678.63;;;-0.37;100.00
11049;BME280;5577;42.706;23.160;2023-01-28T05:32:32;93676.78;;;-0.36;100.00
11049;BME280;5577;42.706;23.160;2023-01-28T05:35:16;93671.22;;;-0.30;100.00
11049;BME280;5577;42.706;23.160;2023-01-28T05:38:00;93667.25;;;-0.41;100.00
11049;BME280;5577;42.706;23.160;2023-01-28T05:40:46;93687.50;;;-0.24;100.00
11049;BME280;5577;42.706;23.160;2023-01-28T05:43:30;93682.38;;;-0.29;100.00
11049;BME280;5577;42.706;23.160;2023-01-28T05:46:14;93682.66;;;-0.31;100.00
11049;BME280;5577;42.706;23.160;2023-01-28T05:48:58;93700.19;;;-0.36;100.00
11049;BME280;5577;42.706;23.160;2023-01-28T05:51:42;93702.50;;;-0.35;100.00
11049;BME280;5577;42.706;23.160;2023-01-28T05:54:27;93707.25;;;-0.37;100.00
11049;BME280;5577;42.706;23.160;2023-01-28T05:57:12;93703.28;;;-0.34;100.00
11049;BME280;5577;42.706;23.160;2023-01-28T05:59:56;93671.66;;;-0.68;100.00
11049;BME280;5577;42.706;23.160;2023-01-28T06:02:41;93699.50;;;-0.42;100.00
11049;BME280;5577;42.706;23.160;2023-01-28T06:05:25;93641.81;;;-0.84;100.00
11049;BME280;5577;42.706;23.160;2023-01-28T06:08:09;93702.63;;;-0.40;100.00
11049;BME280;5577;42.706;23.160;2023-01-28T06:10:53;93710.50;;;-0.45;100.00
11049;BME280;5577;42.706;23.160;2023-01-28T06:13:37;93709.91;;;-0.42;100.00
11049;BME280;5577;42.706;23.160;2023-01-28T06:16:21;93715.50;;;-0.48;100.00
11049;BME280;5577;42.706;23.160;2023-01-28T06:19:05;93718.97;;;-0.39;100.00
11049;BME280;5577;42.706;23.160;2023-01-28T06:21:49;93729.75;;;-0.32;100.00
11049;BME280;5577;42.706;23.160;2023-01-28T06:24:33;93713.00;;;-0.40;100.00
11049;BME280;5577;42.706;23.160;2023-01-28T06:27:17;93737.56;;;-0.32;100.00
11049;BME280;5577;42.706;23.160;2023-01-28T06:30:01;93749.53;;;-0.31;100.00
11049;BME280;5577;42.706;23.160;2023-01-28T06:32:45;93744.78;;;-0.29;100.00
11049;BME280;5577;42.706;23.160;2023-01-28T06:35:29;93746.53;;;-0.25;100.00
11049;BME280;5577;42.706;23.160;2023-01-28T06:38:13;93743.75;;;-0.28;100.00
11049;BME280;5577;42.706;23.160;2023-01-28T06:40:57;93748.94;;;-0.28;100.00
11049;BME280;5577;42.706;23.160;2023-01-28T06:43:41;93753.84;;;-0.27;100.00
11049;BME280;5577;42.706;23.160;2023-01-28T06:46:25;93761.63;;;-0.27;100.00
11049;BME280;5577;42.706;23.160;2023-01-28T06:49:09;93763.97;;;-0.25;100.00
11049;BME280;5577;42.706;23.160;2023-01-28T06:51:53;93764.94;;;-0.21;100.00
11049;BME280;5577;42.706;23.160;2023-01-28T06:54:37;93770.03;;;-0.30;100.00
11049;BME280;5577;42.706;23.160;2023-01-28T06:57:21;93774.25;;;-0.34;100.00
11049;BME280;5577;42.706;23.160;2023-01-28T07:00:07;93758.22;;;-0.54;100.00
11049;BME280;5577;42.706;23.160;2023-01-28T07:02:54;93777.91;;;-0.35;100.00
11049;BME280;5577;42.706;23.160;2023-01-28T07:05:39;93779.94;;;-0.32;100.00
11049;BME280;5577;42.706;23.160;2023-01-28T07:08:23;93774.56;;;-0.35;100.00
11049;BME280;5577;42.706;23.160;2023-01-28T07:11:07;93781.69;;;-0.27;100.00
11049;BME280;5577;42.706;23.160;2023-01-28T07:13:51;93788.72;;;-0.28;100.00
11049;BME280;5577;42.706;23.160;2023-01-28T07:16:35;93795.84;;;-0.20;100.00
11049;BME280;5577;42.706;23.160;2023-01-28T07:19:19;93795.66;;;-0.23;100.00
11049;BME280;5577;42.706;23.160;2023-01-28T07:22:03;93799.63;;;-0.12;100.00
11049;BME280;5577;42.706;23.160;2023-01-28T07:24:47;93801.56;;;-0.04;100.00
11049;BME280;5577;42.706;23.160;2023-01-28T07:27:31;93810.81;;;0.02;100.00
11049;BME280;5577;42.706;23.160;2023-01-28T07:30:17;93808.13;;;0.07;100.00
11049;BME280;5577;42.706;23.160;2023-01-28T07:33:01;93780.06;;;-0.37;100.00
11049;BME280;5577;42.706;23.160;2023-01-28T07:35:46;93809.91;;;-0.21;100.00
11049;BME280;5577;42.706;23.160;2023-01-28T07:38:31;93805.56;;;-0.25;100.00
11049;BME280;5577;42.706;23.160;2023-01-28T07:41:14;93823.13;;;-0.17;100.00
11049;BME280;5577;42.706;23.160;2023-01-28T07:43:58;93816.31;;;0.00;100.00
11049;BME280;5577;42.706;23.160;2023-01-28T07:46:42;93837.06;;;0.19;100.00
11049;BME280;5577;42.706;23.160;2023-01-28T07:49:26;93835.78;;;0.44;100.00
11049;BME280;5577;42.706;23.160;2023-01-28T07:52:11;93834.66;;;0.50;100.00
11049;BME280;5577;42.706;23.160;2023-01-28T07:54:55;93782.78;;;0.26;100.00
11049;BME280;5577;42.706;23.160;2023-01-28T07:57:53;93831.44;;;0.66;100.00
11049;BME280;5577;42.706;23.160;2023-01-28T08:00:37;93829.25;;;0.60;100.00
11049;BME280;5577;42.706;23.160;2023-01-28T08:03:22;93834.13;;;0.75;100.00
11049;BME280;5577;42.706;23.160;2023-01-28T08:06:06;93840.16;;;0.62;100.00
11049;BME280;5577;42.706;23.160;2023-01-28T08:08:50;93840.72;;;0.72;100.00
11049;BME280;5577;42.706;23.160;2023-01-28T08:11:37;93811.88;;;0.69;100.00
11049;BME280;5577;42.706;23.160;2023-01-28T08:14:21;93850.22;;;0.90;100.00
11049;BME280;5577;42.706;23.160;2023-01-28T08:17:05;93808.56;;;0.77;100.00
11049;BME280;5577;42.706;23.160;2023-01-28T08:19:49;93772.63;;;0.52;100.00
11049;BME280;5577;42.706;23.160;2023-01-28T08:22:33;93856.22;;;1.26;100.00
11049;BME280;5577;42.706;23.160;2023-01-28T08:25:17;93835.25;;;1.09;100.00
11049;BME280;5577;42.706;23.160;2023-01-28T08:28:02;93864.25;;;1.30;100.00
11049;BME280;5577;42.706;23.160;2023-01-28T08:30:46;93862.88;;;1.32;100.00
11049;BME280;5577;42.706;23.160;2023-01-28T08:33:30;93859.84;;;1.39;100.00
11049;BME280;5577;42.706;23.160;2023-01-28T08:36:15;93867.50;;;1.35;100.00
11049;BME280;5577;42.706;23.160;2023-01-28T08:38:59;93861.03;;;1.33;100.00
11049;BME280;5577;42.706;23.160;2023-01-28T08:41:42;93863.88;;;1.23;100.00
11049;BME280;5577;42.706;23.160;2023-01-28T08:44:26;93862.44;;;1.17;100.00
11049;BME280;5577;42.706;23.160;2023-01-28T08:47:10;93860.69;;;1.26;100.00
11049;BME280;5577;42.706;23.160;2023-01-28T08:49:54;93865.53;;;1.19;100.00
11049;BME280;5577;42.706;23.160;2023-01-28T08:52:38;93873.28;;;1.10;100.00
11049;BME280;5577;42.706;23.160;2023-01-28T08:55:23;93861.56;;;1.21;100.00
11049;BME280;5577;42.706;23.160;2023-01-28T08:58:16;93849.09;;;1.18;100.00
11049;BME280;5577;42.706;23.160;2023-01-28T09:01:04;93872.50;;;1.45;100.00
11049;BME280;5577;42.706;23.160;2023-01-28T09:03:49;93876.31;;;1.26;100.00
11049;BME280;5577;42.706;23.160;2023-01-28T09:06:33;93875.59;;;1.12;100.00
11049;BME280;5577;42.706;23.160;2023-01-28T09:09:17;93872.03;;;1.08;100.00
11049;BME280;5577;42.706;23.160;2023-01-28T09:12:01;93876.88;;;1.36;100.00
11049;BME280;5577;42.706;23.160;2023-01-28T09:14:45;93871.50;;;1.55;100.00
11049;BME280;5577;42.706;23.160;2023-01-28T09:17:29;93868.72;;;1.73;100.00
11049;BME280;5577;42.706;23.160;2023-01-28T09:20:13;93867.63;;;1.74;100.00
11049;BME280;5577;42.706;23.160;2023-01-28T09:22:57;93864.84;;;1.93;100.00
11049;BME280;5577;42.706;23.160;2023-01-28T09:25:42;93871.28;;;2.17;100.00
11049;BME280;5577;42.706;23.160;2023-01-28T09:28:25;93864.06;;;2.14;100.00
11049;BME280;5577;42.706;23.160;2023-01-28T09:31:11;93831.34;;;2.17;100.00
11049;BME280;5577;42.706;23.160;2023-01-28T09:33:55;93861.34;;;2.28;100.00
11049;BME280;5577;42.706;23.160;2023-01-28T09:36:40;93861.31;;;2.19;100.00
11049;BME280;5577;42.706;23.160;2023-01-28T09:39:24;93859.78;;;2.18;100.00
11049;BME280;5577;42.706;23.160;2023-01-28T09:45:32;93864.53;;;2.16;100.00
11049;BME280;5577;42.706;23.160;2023-01-28T09:48:19;93869.06;;;2.33;100.00
11049;BME280;5577;42.706;23.160;2023-01-28T09:51:12;93859.09;;;2.35;100.00
11049;BME280;5577;42.706;23.160;2023-01-28T09:54:09;93858.19;;;2.39;100.00
11049;BME280;5577;42.706;23.160;2023-01-28T10:00:15;93757.19;;;1.87;100.00
11049;BME280;5577;42.706;23.160;2023-01-28T10:03:20;93861.97;;;2.64;100.00
11049;BME280;5577;42.706;23.160;2023-01-28T10:09:25;93858.78;;;2.84;100.00
11049;BME280;5577;42.706;23.160;2023-01-28T10:15:58;93852.31;;;2.73;100.00
11049;BME280;5577;42.706;23.160;2023-01-28T10:19:06;93843.22;;;2.62;100.00
11049;BME280;5577;42.706;23.160;2023-01-28T10:21:59;93849.34;;;2.57;100.00
11049;BME280;5577;42.706;23.160;2023-01-28T10:24:52;93854.47;;;2.79;100.00
11049;BME280;5577;42.706;23.160;2023-01-28T10:27:38;93849.25;;;2.79;100.00
11049;BME280;5577;42.706;23.160;2023-01-28T10:30:26;93861.72;;;2.91;100.00
11049;BME280;5577;42.706;23.160;2023-01-28T10:33:37;93853.13;;;2.43;100.00
11049;BME280;5577;42.706;23.160;2023-01-28T10:36:22;93860.88;;;2.65;100.00
11049;BME280;5577;42.706;23.160;2023-01-28T10:39:09;93859.34;;;2.64;100.00
11049;BME280;5577;42.706;23.160;2023-01-28T10:41:54;93855.56;;;2.87;100.00
11049;BME280;5577;42.706;23.160;2023-01-28T10:44:41;93844.78;;;2.71;100.00
11049;BME280;5577;42.706;23.160;2023-01-28T10:48:06;93853.78;;;2.57;100.00
11049;BME280;5577;42.706;23.160;2023-01-28T10:50:56;93849.91;;;2.93;100.00
11049;BME280;5577;42.706;23.160;2023-01-28T10:53:45;93846.94;;;2.78;100.00
11049;BME280;5577;42.706;23.160;2023-01-28T10:56:31;93853.69;;;2.79;100.00
11049;BME280;5577;42.706;23.160;2023-01-28T10:59:32;93857.84;;;2.71;100.00
11049;BME280;5577;42.706;23.160;2023-01-28T11:02:32;93851.06;;;2.62;100.00
11049;BME280;5577;42.706;23.160;2023-01-28T11:05:26;93861.19;;;2.72;100.00
11049;BME280;5577;42.706;23.160;2023-01-28T11:08:15;93855.31;;;2.58;100.00
11049;BME280;5577;42.706;23.160;2023-01-28T11:11:00;93858.31;;;2.34;100.00
11049;BME280;5577;42.706;23.160;2023-01-28T11:13:51;93850.88;;;2.58;100.00
11049;BME280;5577;42.706;23.160;2023-01-28T11:16:38;93853.44;;;2.50;100.00
11049;BME280;5577;42.706;23.160;2023-01-28T11:19:28;93860.53;;;2.19;100.00
11049;BME280;5577;42.706;23.160;2023-01-28T11:22:34;93862.13;;;2.28;100.00
11049;BME280;5577;42.706;23.160;2023-01-28T11:25:31;93852.97;;;2.39;100.00
11049;BME280;5577;42.706;23.160;2023-01-28T11:28:24;93853.41;;;2.41;100.00
11049;BME280;5577;42.706;23.160;2023-01-28T11:31:15;93858.84;;;2.23;100.00
11049;BME280;5577;42.706;23.160;2023-01-28T11:34:01;93851.38;;;2.30;100.00
11049;BME280;5577;42.706;23.160;2023-01-28T11:37:01;93854.31;;;2.37;100.00
11049;BME280;5577;42.706;23.160;2023-01-28T11:40:15;93853.06;;;2.73;100.00
11049;BME280;5577;42.706;23.160;2023-01-28T11:42:59;93854.03;;;2.86;100.00
11049;BME280;5577;42.706;23.160;2023-01-28T11:49:57;93842.69;;;2.99;100.00
11049;BME280;5577;42.706;23.160;2023-01-28T11:56:14;93847.81;;;2.56;100.00
11049;BME280;5577;42.706;23.160;2023-01-28T12:02:15;93844.44;;;2.64;100.00
11049;BME280;5577;42.706;23.160;2023-01-28T12:05:29;93846.19;;;2.94;100.00
11049;BME280;5577;42.706;23.160;2023-01-28T12:08:23;93835.31;;;3.27;100.00
11049;BME280;5577;42.706;23.160;2023-01-28T12:11:41;93841.03;;;3.54;100.00
11049;BME280;5577;42.706;23.160;2023-01-28T12:21:13;93828.06;;;3.92;100.00
11049;BME280;5577;42.706;23.160;2023-01-28T12:27:56;93843.34;;;3.39;100.00
11049;BME280;5577;42.706;23.160;2023-01-28T12:37:00;93845.03;;;3.35;100.00
11049;BME280;5577;42.706;23.160;2023-01-28T12:46:20;93832.25;;;3.42;100.00
11049;BME280;5577;42.706;23.160;2023-01-28T12:55:00;93815.94;;;3.53;100.00
11049;BME280;5577;42.706;23.160;2023-01-28T12:57:48;93864.28;;;3.73;100.00
11049;BME280;5577;42.706;23.160;2023-01-28T13:00:38;93792.22;;;3.07;100.00
11049;BME280;5577;42.706;23.160;2023-01-28T13:03:54;93868.72;;;3.64;100.00
11049;BME280;5577;42.706;23.160;2023-01-28T13:09:30;93874.44;;;3.49;100.00
11049;BME280;5577;42.706;23.160;2023-01-28T13:12:17;93874.28;;;3.54;100.00
11049;BME280;5577;42.706;23.160;2023-01-28T13:15:02;93851.94;;;3.14;100.00
11049;BME280;5577;42.706;23.160;2023-01-28T13:18:01;93876.81;;;2.94;100.00
11049;BME280;5577;42.706;23.160;2023-01-28T13:20:48;93878.50;;;2.90;100.00
11049;BME280;5577;42.706;23.160;2023-01-28T13:23:45;93885.25;;;2.82;100.00
11049;BME280;5577;42.706;23.160;2023-01-28T13:26:43;93883.06;;;2.76;100.00
11049;BME280;5577;42.706;23.160;2023-01-28T13:29:31;93837.63;;;2.46;100.00
11049;BME280;5577;42.706;23.160;2023-01-28T13:32:31;93823.75;;;2.37;100.00
11049;BME280;5577;42.706;23.160;2023-01-28T13:35:32;93890.91;;;2.76;100.00
11049;BME280;5577;42.706;23.160;2023-01-28T13:38:18;93895.19;;;2.72;100.00
11049;BME280;5577;42.706;23.160;2023-01-28T13:41:04;93902.56;;;2.70;100.00
11049;BME280;5577;42.706;23.160;2023-01-28T13:43:49;93902.31;;;2.80;100.00
11049;BME280;5577;42.706;23.160;2023-01-28T13:46:33;93908.53;;;2.70;100.00
11049;BME280;5577;42.706;23.160;2023-01-28T13:49:56;93896.47;;;2.52;100.00
11049;BME280;5577;42.706;23.160;2023-01-28T13:52:36;93861.84;;;2.38;100.00
11049;BME280;5577;42.706;23.160;2023-01-28T13:55:36;93914.03;;;2.52;100.00
11049;BME280;5577;42.706;23.160;2023-01-28T14:10:33;93926.03;;;2.00;100.00
11049;BME280;5577;42.706;23.160;2023-01-28T14:19:10;93933.81;;;1.78;100.00
11049;BME280;5577;42.706;23.160;2023-01-28T14:21:56;93941.78;;;1.73;100.00
11049;BME280;5577;42.706;23.160;2023-01-28T14:24:40;93945.03;;;1.79;100.00
11049;BME280;5577;42.706;23.160;2023-01-28T14:27:35;93916.91;;;1.54;100.00
11049;BME280;5577;42.706;23.160;2023-01-28T14:30:39;93948.28;;;1.62;100.00
11049;BME280;5577;42.706;23.160;2023-01-28T14:33:26;93956.19;;;1.71;100.00
11049;BME280;5577;42.706;23.160;2023-01-28T14:36:11;93931.41;;;1.46;100.00
11049;BME280;5577;42.706;23.160;2023-01-28T14:38:55;93952.31;;;1.68;100.00
11049;BME280;5577;42.706;23.160;2023-01-28T14:41:42;93956.69;;;1.59;100.00
11049;BME280;5577;42.706;23.160;2023-01-28T14:44:34;93960.59;;;1.48;100.00
11049;BME280;5577;42.706;23.160;2023-01-28T14:57:06;93934.59;;;1.08;100.00
11049;BME280;5577;42.706;23.160;2023-01-28T14:59:57;93981.75;;;1.33;100.00
11049;BME280;5577;42.706;23.160;2023-01-28T15:02:42;93979.53;;;1.27;100.00
11049;BME280;5577;42.706;23.160;2023-01-28T15:05:28;93993.25;;;1.32;100.00
11049;BME280;5577;42.706;23.160;2023-01-28T15:08:22;93984.84;;;1.35;100.00
11049;BME280;5577;42.706;23.160;2023-01-28T15:11:15;93990.44;;;1.42;100.00
11049;BME280;5577;42.706;23.160;2023-01-28T15:14:00;93994.03;;;1.33;100.00
11049;BME280;5577;42.706;23.160;2023-01-28T15:16:48;93996.25;;;1.26;100.00
11049;BME280;5577;42.706;23.160;2023-01-28T15:19:34;93992.19;;;1.20;100.00
11049;BME280;5577;42.706;23.160;2023-01-28T15:22:24;93947.31;;;0.96;100.00
11049;BME280;5577;42.706;23.160;2023-01-28T15:25:16;93922.41;;;0.76;100.00
11049;BME280;5577;42.706;23.160;2023-01-28T15:28:01;93993.06;;;1.15;100.00
11049;BME280;5577;42.706;23.160;2023-01-28T15:30:45;94002.63;;;1.20;100.00
11049;BME280;5577;42.706;23.160;2023-01-28T15:33:29;94003.13;;;1.22;100.00
11049;BME280;5577;42.706;23.160;2023-01-28T15:36:13;93998.00;;;1.17;100.00
11049;BME280;5577;42.706;23.160;2023-01-28T15:38:57;93948.19;;;0.78;100.00
11049;BME280;5577;42.706;23.160;2023-01-28T15:41:44;94002.94;;;1.05;100.00
11049;BME280;5577;42.706;23.160;2023-01-28T15:44:32;94006.59;;;1.04;100.00
11049;BME280;5577;42.706;23.160;2023-01-28T15:47:22;94010.84;;;1.13;100.00
11049;BME280;5577;42.706;23.160;2023-01-28T15:50:22;94016.53;;;1.02;100.00
11049;BME280;5577;42.706;23.160;2023-01-28T15:53:08;94014.50;;;0.99;100.00
11049;BME280;5577;42.706;23.160;2023-01-28T15:56:04;94021.47;;;0.90;100.00
11049;BME280;5577;42.706;23.160;2023-01-28T15:58:49;94025.09;;;0.75;100.00
11049;BME280;5577;42.706;23.160;2023-01-28T16:01:32;94020.28;;;0.69;100.00
11049;BME280;5577;42.706;23.160;2023-01-28T16:04:28;94033.59;;;0.81;100.00
11049;BME280;5577;42.706;23.160;2023-01-28T16:07:12;93999.31;;;0.60;100.00
11049;BME280;5577;42.706;23.160;2023-01-28T16:09:57;93968.00;;;0.33;100.00
11049;BME280;5577;42.706;23.160;2023-01-28T16:12:47;94032.50;;;0.68;100.00
11049;BME280;5577;42.706;23.160;2023-01-28T16:15:35;94034.44;;;0.63;100.00
11049;BME280;5577;42.706;23.160;2023-01-28T16:18:42;94040.88;;;0.65;100.00
11049;BME280;5577;42.706;23.160;2023-01-28T16:21:42;94036.91;;;0.54;100.00
11049;BME280;5577;42.706;23.160;2023-01-28T16:24:28;94038.09;;;0.62;100.00
11049;BME280;5577;42.706;23.160;2023-01-28T16:27:25;93942.56;;;-0.02;100.00
11049;BME280;5577;42.706;23.160;2023-01-28T16:30:10;94042.03;;;0.59;100.00